createdAt,value
2022-08-22T00:02:33.398Z,17.77
2022-08-22T00:02:43.019Z,24.98
2022-08-22T00:02:52.802Z,23.58
2022-08-22T00:03:08.326Z,32.47
2022-08-22T00:05:11.687Z,25.92
2022-08-22T00:07:54.116Z,19.30
2022-08-22T00:10:28.207Z,17.77
2022-08-22T00:13:10.242Z,18.13
2022-08-22T00:15:53.259Z,19.15
2022-08-22T00:18:44.282Z,16.83
2022-08-22T00:21:17.930Z,18.05
2022-08-22T00:24:02.050Z,16.17
2022-08-22T00:26:45.098Z,16.55
2022-08-22T00:29:25.926Z,16.85
2022-08-22T00:32:33.867Z,18.92
2022-08-22T00:35:29.677Z,18.75
2022-08-22T00:38:02.902Z,17.40
2022-08-22T00:40:56.527Z,18.55
2022-08-22T00:43:42.812Z,18.30
2022-08-22T00:46:42.201Z,18.35
2022-08-22T00:49:18.153Z,17.00
2022-08-22T00:52:04.683Z,18.75
2022-08-22T00:54:35.035Z,18.02
2022-08-22T00:57:30.963Z,19.45
2022-08-22T01:00:12.416Z,18.35
2022-08-22T01:03:11.649Z,18.88
2022-08-22T01:06:11.572Z,17.73
2022-08-22T01:09:14.755Z,18.30
2022-08-22T01:11:44.871Z,18.95
2022-08-22T01:14:49.662Z,17.83
2022-08-22T01:17:49.032Z,17.30
2022-08-22T01:20:51.947Z,19.23
2022-08-22T01:23:40.424Z,17.60
2022-08-22T01:26:47.902Z,20.13
2022-08-22T01:29:34.657Z,16.08
2022-08-22T01:32:48.379Z,20.15
2022-08-22T01:35:15.811Z,18.45
2022-08-22T01:38:23.771Z,19.63
2022-08-22T01:41:03.005Z,18.30
2022-08-22T01:44:07.581Z,20.00
2022-08-22T01:47:13.027Z,19.40
2022-08-22T01:49:48.980Z,17.55
2022-08-22T01:52:34.565Z,18.77
2022-08-22T01:55:29.627Z,22.65
2022-08-22T01:58:00.897Z,19.35
2022-08-22T02:00:51.779Z,18.52
2022-08-22T02:03:32.956Z,18.08
2022-08-22T02:06:08.355Z,18.15
2022-08-22T02:08:49.560Z,18.80
2022-08-22T02:12:21.575Z,17.08
2022-08-22T02:15:26.529Z,20.13
2022-08-22T02:18:05.745Z,19.95
2022-08-22T02:20:48.114Z,19.65
2022-08-22T02:23:25.686Z,19.95
2022-08-22T02:26:05.087Z,18.90
2022-08-22T02:28:57.447Z,20.95
2022-08-22T02:31:41.584Z,17.58
2022-08-22T02:34:39.040Z,20.90
2022-08-22T02:37:18.395Z,19.33
2022-08-22T02:40:09.218Z,20.10
2022-08-22T02:42:43.561Z,19.02
2022-08-22T02:45:22.946Z,21.98
2022-08-22T02:47:57.557Z,19.17
2022-08-22T02:50:34.067Z,20.63
2022-08-22T02:53:19.606Z,20.20
2022-08-22T02:56:00.689Z,23.58
2022-08-22T02:58:59.937Z,19.80
2022-08-22T03:01:30.483Z,18.65
2022-08-22T03:04:22.945Z,18.50
2022-08-22T03:07:36.795Z,23.23
2022-08-22T03:10:18.323Z,19.60
2022-08-22T03:13:10.032Z,24.33
2022-08-22T03:15:48.473Z,17.95
2022-08-22T03:18:20.550Z,21.02
2022-08-22T03:21:06.553Z,20.10
2022-08-22T03:23:33.950Z,21.75
2022-08-22T03:26:10.106Z,22.13
2022-08-22T03:28:59.093Z,19.52
2022-08-22T03:31:30.554Z,22.10
2022-08-22T03:34:22.567Z,24.23
2022-08-22T03:39:49.023Z,22.20
2022-08-22T03:42:34.798Z,24.67
2022-08-22T03:45:27.855Z,23.17
2022-08-22T03:48:33.969Z,21.20
2022-08-22T03:51:29.407Z,21.63
2022-08-22T03:54:08.574Z,23.55
2022-08-22T03:56:57.471Z,23.73
2022-08-22T04:00:04.929Z,23.05
2022-08-22T04:03:05.843Z,23.25
2022-08-22T04:05:36.276Z,22.13
2022-08-22T04:08:44.722Z,24.30
2022-08-22T04:11:31.942Z,23.95
2022-08-22T04:14:17.910Z,22.15
2022-08-22T04:16:56.622Z,23.83
2022-08-22T04:19:42.807Z,23.10
2022-08-22T04:22:42.077Z,24.10
2022-08-22T04:25:28.242Z,23.38
2022-08-22T04:28:05.629Z,25.55
2022-08-22T04:30:44.559Z,25.27
2022-08-22T04:33:23.760Z,23.25
2022-08-22T04:36:13.898Z,27.92
2022-08-22T04:39:19.894Z,24.35
2022-08-22T04:42:16.283Z,23.17
2022-08-22T04:45:02.319Z,26.40
2022-08-22T04:47:34.533Z,24.45
2022-08-22T04:50:26.438Z,22.17
2022-08-22T04:53:08.907Z,23.63
2022-08-22T04:55:56.028Z,23.48
2022-08-22T04:58:39.069Z,24.45
2022-08-22T05:01:17.048Z,24.73
2022-08-22T05:03:57.690Z,25.85
2022-08-22T05:06:29.966Z,24.05
2022-08-22T05:09:03.793Z,26.70
2022-08-22T05:11:34.192Z,23.85
2022-08-22T05:14:15.557Z,24.48
2022-08-22T05:16:46.364Z,22.92
2022-08-22T05:19:37.614Z,27.50
2022-08-22T05:22:16.094Z,25.05
2022-08-22T05:24:48.774Z,24.85
2022-08-22T05:27:24.748Z,26.63
2022-08-22T05:30:00.996Z,22.83
2022-08-22T05:32:40.455Z,26.73
2022-08-22T05:35:10.190Z,25.38
2022-08-22T05:37:39.920Z,27.85
2022-08-22T05:40:11.211Z,23.77
2022-08-22T05:42:38.758Z,24.80
2022-08-22T05:45:12.293Z,26.65
2022-08-22T05:47:45.736Z,27.58
2022-08-22T05:50:35.081Z,26.30
2022-08-22T05:53:17.714Z,22.08
2022-08-22T05:56:04.901Z,23.13
2022-08-22T05:58:38.402Z,23.23
2022-08-22T06:01:20.918Z,22.55
2022-08-22T06:04:06.046Z,26.35
2022-08-22T06:06:42.113Z,26.15
2022-08-22T06:09:35.257Z,29.02
2022-08-22T06:12:16.500Z,19.85
2022-08-22T06:15:27.379Z,20.77
2022-08-22T06:18:07.259Z,17.67
2022-08-22T06:20:34.671Z,23.10
2022-08-22T06:23:04.057Z,19.15
2022-08-22T06:25:34.945Z,19.92
2022-08-22T06:28:07.851Z,21.00
2022-08-22T06:30:39.813Z,21.25
2022-08-22T06:33:12.873Z,20.75
2022-08-22T06:36:20.539Z,17.40
2022-08-22T06:39:46.667Z,17.58
2022-08-22T06:42:24.533Z,15.00
2022-08-22T06:44:58.167Z,18.33
2022-08-22T06:47:28.570Z,17.13
2022-08-22T06:50:13.614Z,21.58
2022-08-22T06:53:15.121Z,16.38
2022-08-22T06:55:47.866Z,17.45
2022-08-22T06:58:20.995Z,15.38
2022-08-22T07:01:05.732Z,18.52
2022-08-22T07:04:08.021Z,17.10
2022-08-22T07:06:38.726Z,14.07
2022-08-22T07:09:07.815Z,15.13
2022-08-22T07:11:39.835Z,11.93
2022-08-22T07:14:11.841Z,13.50
2022-08-22T07:16:58.472Z,11.30
2022-08-22T07:19:37.164Z,13.85
2022-08-22T07:22:28.959Z,12.65
2022-08-22T07:25:03.263Z,12.02
2022-08-22T07:28:03.970Z,12.63
2022-08-22T07:30:55.834Z,13.40
2022-08-22T07:33:51.810Z,12.32
2022-08-22T07:36:31.847Z,11.35
2022-08-22T07:39:21.541Z,13.13
2022-08-22T07:42:11.919Z,14.48
2022-08-22T07:44:49.562Z,13.63
2022-08-22T07:47:26.683Z,13.85
2022-08-22T07:49:56.974Z,12.57
2022-08-22T07:52:25.628Z,13.38
2022-08-22T07:55:03.617Z,12.65
2022-08-22T07:57:39.869Z,14.48
2022-08-22T08:00:15.217Z,11.15
2022-08-22T08:02:53.585Z,9.68
2022-08-22T08:05:24.352Z,10.43
2022-08-22T08:07:55.371Z,10.57
2022-08-22T08:10:28.477Z,10.18
2022-08-22T08:13:03.664Z,10.02
2022-08-22T08:15:36.014Z,10.90
2022-08-22T08:18:14.321Z,10.98
2022-08-22T08:20:42.176Z,11.05
2022-08-22T08:23:12.208Z,12.43
2022-08-22T08:26:07.525Z,9.15
2022-08-22T08:28:44.420Z,9.25
2022-08-22T08:31:29.215Z,10.32
2022-08-22T08:34:08.473Z,10.45
2022-08-22T08:36:58.042Z,10.73
2022-08-22T08:39:34.992Z,12.10
2022-08-22T08:42:27.938Z,13.88
2022-08-22T08:45:17.568Z,12.95
2022-08-22T08:48:00.330Z,12.48
2022-08-22T08:51:04.556Z,15.48
2022-08-22T08:54:04.054Z,14.00
2022-08-22T08:57:10.537Z,12.15
2022-08-22T09:00:04.691Z,11.25
2022-08-22T09:03:00.957Z,12.82
2022-08-22T09:05:58.875Z,12.02
2022-08-22T09:08:42.566Z,10.60
2022-08-22T09:11:44.781Z,11.82
2022-08-22T09:14:36.430Z,11.32
2022-08-22T09:17:21.875Z,12.95
2022-08-22T09:20:19.350Z,11.82
2022-08-22T09:23:24.571Z,11.55
2022-08-22T09:26:13.478Z,14.65
2022-08-22T09:28:49.319Z,11.90
2022-08-22T09:31:44.972Z,11.13
2022-08-22T09:34:26.864Z,9.70
2022-08-22T09:37:13.909Z,11.20
2022-08-22T09:39:54.043Z,11.23
2022-08-22T09:42:50.135Z,10.82
2022-08-22T09:45:47.035Z,11.38
2022-08-22T09:48:39.773Z,11.57
2022-08-22T09:51:31.751Z,12.27
2022-08-22T09:54:31.650Z,11.03
2022-08-22T09:57:31.731Z,9.57
2022-08-22T10:00:02.198Z,9.02
2022-08-22T10:03:21.946Z,9.73
2022-08-22T10:06:05.527Z,8.85
2022-08-22T10:09:24.214Z,11.23
2022-08-22T10:12:00.276Z,13.20
2022-08-22T10:15:09.083Z,11.77
2022-08-22T10:17:45.840Z,11.45
2022-08-22T10:20:27.748Z,11.85
2022-08-22T10:25:45.177Z,10.23
2022-08-22T10:28:28.662Z,8.65
2022-08-22T10:31:34.664Z,7.93
2022-08-22T10:34:20.022Z,9.40
2022-08-22T10:37:26.575Z,9.88
2022-08-22T10:40:06.291Z,9.50
2022-08-22T10:42:39.113Z,10.15
2022-08-22T10:45:35.512Z,9.65
2022-08-22T10:48:09.793Z,10.48
2022-08-22T10:50:45.140Z,9.23
2022-08-22T10:53:57.806Z,11.40
2022-08-22T10:56:39.199Z,11.32
2022-08-22T11:01:54.464Z,8.82
2022-08-22T11:04:54.393Z,9.43
2022-08-22T11:07:50.053Z,9.77
2022-08-22T11:10:45.567Z,9.57
2022-08-22T11:13:29.253Z,10.00
2022-08-22T11:16:43.291Z,10.60
2022-08-22T11:19:26.746Z,8.57
2022-08-22T11:22:00.303Z,9.57
2022-08-22T11:24:35.243Z,9.25
2022-08-22T11:27:39.831Z,11.20
2022-08-22T11:30:58.127Z,9.70
2022-08-22T11:34:02.411Z,9.90
2022-08-22T11:36:33.366Z,9.18
2022-08-22T11:39:13.725Z,10.52
2022-08-22T11:42:21.986Z,7.70
2022-08-22T11:44:59.404Z,8.88
2022-08-22T11:47:34.029Z,10.40
2022-08-22T11:50:13.616Z,10.38
2022-08-22T11:52:41.485Z,8.82
2022-08-22T11:55:32.579Z,8.23
2022-08-22T11:58:42.072Z,8.18
2022-08-22T12:01:34.256Z,10.18
2022-08-22T12:04:10.118Z,10.65
2022-08-22T12:07:01.585Z,12.45
2022-08-22T12:09:41.837Z,10.43
2022-08-22T12:12:22.114Z,11.05
2022-08-22T12:14:59.197Z,10.18
2022-08-22T12:17:55.409Z,11.27
2022-08-22T12:20:41.486Z,11.45
2022-08-22T12:23:50.597Z,14.05
2022-08-22T12:27:08.284Z,13.52
2022-08-22T12:30:04.700Z,11.80
2022-08-22T12:33:13.211Z,9.65
2022-08-22T12:36:18.329Z,11.57
2022-08-22T12:38:54.826Z,10.82
2022-08-22T12:42:00.083Z,9.23
2022-08-22T12:44:42.695Z,9.48
2022-08-22T12:47:21.214Z,12.02
2022-08-22T12:50:13.383Z,9.70
2022-08-22T12:53:15.866Z,10.98
2022-08-22T12:56:18.000Z,13.80
2022-08-22T12:59:25.050Z,9.43
2022-08-22T13:01:57.019Z,12.85
2022-08-22T13:04:33.513Z,9.33
2022-08-22T13:07:18.626Z,9.45
2022-08-22T13:09:59.565Z,9.93
2022-08-22T13:12:52.838Z,10.48
2022-08-22T13:15:42.792Z,9.70
2022-08-22T13:18:30.586Z,9.50
2022-08-22T13:21:02.893Z,10.45
2022-08-22T13:23:39.590Z,11.07
2022-08-22T13:26:33.801Z,10.30
2022-08-22T13:29:26.784Z,11.20
2022-08-22T13:32:03.103Z,10.73
2022-08-22T13:34:46.960Z,12.10
2022-08-22T13:37:44.573Z,11.48
2022-08-22T13:40:22.463Z,10.20
2022-08-22T13:42:56.711Z,14.15
2022-08-22T13:45:29.627Z,11.98
2022-08-22T13:48:03.807Z,10.13
2022-08-22T13:50:52.918Z,10.15
2022-08-22T13:53:40.956Z,13.60
2022-08-22T13:56:18.349Z,10.27
2022-08-22T13:58:50.741Z,10.85
2022-08-22T14:01:25.403Z,10.63
2022-08-22T14:03:58.030Z,9.93
2022-08-22T14:06:37.248Z,12.20
2022-08-22T14:09:37.010Z,11.48
2022-08-22T14:12:13.966Z,12.85
2022-08-22T14:14:49.241Z,11.55
2022-08-22T14:17:28.891Z,11.63
2022-08-22T14:20:07.007Z,13.73
2022-08-22T14:25:17.522Z,11.15
2022-08-22T14:27:52.751Z,14.02
2022-08-22T14:30:24.560Z,13.02
2022-08-22T14:33:13.516Z,13.05
2022-08-22T14:35:52.867Z,13.18
2022-08-22T14:38:29.882Z,12.32
2022-08-22T14:41:16.220Z,11.55
2022-08-22T14:43:59.525Z,13.85
2022-08-22T14:46:42.645Z,12.95
2022-08-22T14:49:24.751Z,13.27
2022-08-22T14:52:33.651Z,14.07
2022-08-22T14:55:21.166Z,14.40
2022-08-22T14:58:05.965Z,11.02
2022-08-22T15:00:38.913Z,14.30
2022-08-22T15:03:28.382Z,12.27
2022-08-22T15:06:23.634Z,13.02
2022-08-22T15:08:51.932Z,17.35
2022-08-22T15:11:23.451Z,13.85
2022-08-22T15:14:02.210Z,15.40
2022-08-22T15:16:36.584Z,14.57
2022-08-22T15:19:36.324Z,14.38
2022-08-22T15:22:20.759Z,16.03
2022-08-22T15:25:07.139Z,20.98
2022-08-22T15:27:48.853Z,12.15
2022-08-22T15:30:21.083Z,14.40
2022-08-22T15:32:49.312Z,13.98
2022-08-22T15:35:29.964Z,13.02
2022-08-22T15:38:08.458Z,14.82
2022-08-22T15:40:45.694Z,17.30
2022-08-22T15:43:21.891Z,13.25
2022-08-22T15:45:53.018Z,15.63
2022-08-22T15:48:31.393Z,14.52
2022-08-22T15:51:02.486Z,14.57
2022-08-22T15:53:52.797Z,18.15
2022-08-22T15:56:36.830Z,14.63
2022-08-22T15:59:48.014Z,17.90
2022-08-22T16:02:40.435Z,20.95
2022-08-22T16:05:10.865Z,18.90
2022-08-22T16:07:41.487Z,19.02
2022-08-22T16:10:32.743Z,22.02
2022-08-22T16:13:38.170Z,15.63
2022-08-22T16:16:27.051Z,17.58
2022-08-22T16:18:54.719Z,20.58
2022-08-22T16:21:22.446Z,23.58
2022-08-22T16:23:58.798Z,19.42
2022-08-22T16:26:32.781Z,21.90
2022-08-22T16:29:07.090Z,21.65
2022-08-22T16:31:44.185Z,22.10
2022-08-22T16:34:20.775Z,21.52
2022-08-22T16:36:48.257Z,20.27
2022-08-22T16:39:21.728Z,18.58
2022-08-22T16:42:16.544Z,14.85
2022-08-22T16:45:11.020Z,16.13
2022-08-22T16:47:58.707Z,19.98
2022-08-22T16:50:30.499Z,18.20
2022-08-22T16:53:08.257Z,17.40
2022-08-22T16:55:36.302Z,14.15
2022-08-22T16:58:56.929Z,15.10
2022-08-22T17:01:43.246Z,11.45
2022-08-22T17:04:27.163Z,12.43
2022-08-22T17:07:10.857Z,14.65
2022-08-22T17:10:00.672Z,12.88
2022-08-22T17:12:40.339Z,11.68
2022-08-22T17:15:26.184Z,15.18
2022-08-22T17:18:11.745Z,14.88
2022-08-22T17:21:07.362Z,16.63
2022-08-22T17:23:44.005Z,12.57
2022-08-22T17:26:49.677Z,18.90
2022-08-22T17:29:24.771Z,18.15
2022-08-22T17:32:18.514Z,13.30
2022-08-22T17:35:32.873Z,15.77
2022-08-22T17:38:00.526Z,13.73
2022-08-22T17:40:38.268Z,13.07
2022-08-22T17:43:27.320Z,11.95
2022-08-22T17:46:03.019Z,16.38
2022-08-22T17:48:48.455Z,15.48
2022-08-22T17:51:34.611Z,14.15
2022-08-22T17:54:13.297Z,14.88
2022-08-22T17:57:03.257Z,11.73
2022-08-22T17:59:49.036Z,17.52
2022-08-22T18:05:17.239Z,12.80
2022-08-22T18:07:59.002Z,11.75
2022-08-22T18:10:48.507Z,12.68
2022-08-22T18:13:34.803Z,14.57
2022-08-22T18:16:12.238Z,12.95
2022-08-22T18:19:14.047Z,15.25
2022-08-22T18:24:33.302Z,16.10
2022-08-22T18:27:09.720Z,16.13
2022-08-22T18:30:02.959Z,15.63
2022-08-22T18:32:43.151Z,15.20
2022-08-22T18:35:21.890Z,18.42
2022-08-22T18:38:18.281Z,22.70
2022-08-22T18:40:54.723Z,16.30
2022-08-22T18:43:30.431Z,14.80
2022-08-22T18:46:03.939Z,16.42
2022-08-22T18:49:11.577Z,17.95
2022-08-22T18:51:38.605Z,19.83
2022-08-22T18:54:07.140Z,19.30
2022-08-22T18:56:37.655Z,19.00
2022-08-22T18:59:29.260Z,21.92
2022-08-22T19:02:14.938Z,21.35
2022-08-22T19:05:09.480Z,20.33
2022-08-22T19:07:37.008Z,17.88
2022-08-22T19:10:23.022Z,16.55
2022-08-22T19:13:05.820Z,19.08
2022-08-22T19:16:01.358Z,22.67
2022-08-22T19:21:43.933Z,19.33
2022-08-22T19:24:36.944Z,23.33
2022-08-22T19:27:07.497Z,19.52
2022-08-22T19:29:34.924Z,23.65
2022-08-22T19:32:13.255Z,20.55
2022-08-22T19:34:46.887Z,22.65
2022-08-22T19:37:31.011Z,20.65
2022-08-22T19:40:10.509Z,22.35
2022-08-22T19:42:44.432Z,20.05
2022-08-22T19:45:26.734Z,22.75
2022-08-22T19:48:13.155Z,27.58
2022-08-22T19:50:43.392Z,24.50
2022-08-22T19:53:20.090Z,25.10
2022-08-22T19:56:12.986Z,22.40
2022-08-22T19:59:12.701Z,22.77
2022-08-22T20:01:40.159Z,25.13
2022-08-22T20:04:45.061Z,29.13
2022-08-22T20:07:42.407Z,25.80
2022-08-22T20:10:34.134Z,23.13
2022-08-22T20:13:07.570Z,24.40
2022-08-22T20:16:03.201Z,27.85
2022-08-22T20:19:06.145Z,29.35
2022-08-22T20:21:39.334Z,29.05
2022-08-22T20:24:11.983Z,33.47
2022-08-22T20:26:57.558Z,34.97
2022-08-22T20:29:35.499Z,25.25
2022-08-22T20:32:05.570Z,25.52
2022-08-22T20:34:38.215Z,31.17
2022-08-22T20:37:39.885Z,27.75
2022-08-22T20:40:51.815Z,33.55
2022-08-22T20:43:32.825Z,28.25
2022-08-22T20:46:19.253Z,32.45
2022-08-22T20:48:51.368Z,31.42
2022-08-22T20:51:25.253Z,30.17
2022-08-22T20:54:10.244Z,30.02
2022-08-22T20:56:53.461Z,27.58
2022-08-22T20:59:42.185Z,29.38
2022-08-22T21:02:29.002Z,32.35
2022-08-22T21:05:13.686Z,24.58
2022-08-22T21:07:44.379Z,26.98
2022-08-22T21:10:39.433Z,27.02
2022-08-22T21:13:23.754Z,22.35
2022-08-22T21:16:00.856Z,25.35
2022-08-22T21:18:33.751Z,25.63
2022-08-22T21:21:19.341Z,25.27
2022-08-22T21:24:01.642Z,22.08
2022-08-22T21:26:40.406Z,24.92
2022-08-22T21:29:23.836Z,27.80
2022-08-22T21:32:04.416Z,24.23
2022-08-22T21:34:42.492Z,24.33
2022-08-22T21:37:36.564Z,32.08
2022-08-22T21:40:15.364Z,27.90
2022-08-22T21:42:46.123Z,25.38
2022-08-22T21:45:47.302Z,26.00
2022-08-22T21:48:36.514Z,26.25
2022-08-22T21:51:25.055Z,26.15
2022-08-22T21:54:30.609Z,26.75
2022-08-22T21:57:17.432Z,26.23
2022-08-22T21:59:52.006Z,28.00
2022-08-22T22:02:29.501Z,27.85
2022-08-22T22:05:00.019Z,28.75
2022-08-22T22:07:28.532Z,28.02
2022-08-22T22:09:56.216Z,29.25
2022-08-22T22:12:24.488Z,25.83
2022-08-22T22:14:52.281Z,25.48
2022-08-22T22:17:20.745Z,26.73
2022-08-22T22:19:48.849Z,26.17
2022-08-22T22:22:17.132Z,28.05
2022-08-22T22:24:44.816Z,29.23
2022-08-22T22:27:16.753Z,29.20
2022-08-22T22:29:44.694Z,33.95
2022-08-22T22:32:12.182Z,29.13
2022-08-22T22:34:39.665Z,31.10
2022-08-22T22:37:12.218Z,27.77
2022-08-22T22:39:39.931Z,27.87
2022-08-22T22:42:09.161Z,26.88
2022-08-22T22:44:36.699Z,28.08
2022-08-22T22:47:05.828Z,24.95
2022-08-22T22:49:33.702Z,27.13
2022-08-22T22:52:02.204Z,26.83
2022-08-22T22:54:30.989Z,25.95
2022-08-22T22:57:02.138Z,25.85
2022-08-22T22:59:29.555Z,25.20
2022-08-22T23:02:11.255Z,22.52
2022-08-22T23:04:41.388Z,27.67
2022-08-22T23:07:11.254Z,25.05
2022-08-22T23:09:44.787Z,26.63
2022-08-22T23:12:14.657Z,25.58
2022-08-22T23:14:42.226Z,27.52
2022-08-22T23:17:10.131Z,29.48
2022-08-22T23:19:39.157Z,29.67
2022-08-22T23:22:08.081Z,34.08
2022-08-22T23:24:38.195Z,29.60
2022-08-22T23:27:07.307Z,29.70
2022-08-22T23:29:34.974Z,29.27
2022-08-22T23:32:04.237Z,30.95
2022-08-22T23:34:35.319Z,29.77
2022-08-22T23:37:06.444Z,28.45
2022-08-22T23:39:35.165Z,31.95
2022-08-22T23:42:03.039Z,28.83
2022-08-22T23:44:33.099Z,30.88
2022-08-22T23:47:01.472Z,33.25
2022-08-22T23:49:30.380Z,28.48
2022-08-22T23:51:58.901Z,28.58
2022-08-22T23:54:26.708Z,28.42
2022-08-22T23:56:57.818Z,34.10
2022-08-22T23:59:30.981Z,30.33
